Etusivu
METAR-TAF:

METAR-TAF

Lentoasemat :

DeRidder, Louisiana, Yhdysvallat

Leveyspiiri: 30-49-54N, Pituuspiiri: 093-20-23W, korkeus merenpinnasta: 63 m

Tämänhetkinen sää

Tämä raportti tehtiin 23 minuuttia sitten, kello 17.55 UTC
tyyntä
Lämpötila 31°C
Kosteus 55%
Ilmanpaine 1019 hPa
Näkyvyys: 16.1 km
Hajanaisia pilviä 3700 ft:n korkeudessa

METAR: KDRI 071755Z AUTO 00000KT 10SM SCT037 31/21 A3010 RMK AO2 T03130211 10313 20233

Aika: 13:18 (18:18 UTC)


TAF: puuttuu

Säähavainnot ja -ennusteet yli 4000 lentoasemalta (METAR- ja TAF-raportit).

Käytössä olevat sääasemat on merkitty karttaan keltaisilla ja punaisilla pisteillä.

Aseta hiiri pisteen päälle nähdäksesi sääaseman nimen.

Klikkaa sitten nähdäksesi säähavainnot ja -ennusteet.

Kartan vaihtaminen: klikkaa mustalla rastilla varustettuja vihreitä pisteitä, niin voit zoomata sisään; viivalla varustettua vihreää pistettä, niin voit zoomata ulos tai vihreitä nuolia, niin pääset viereisille kartoille.


METAR-TAF: